Time;durP1;ratioP1;P1;durP2;ratioP2;P2;SDS_P1;SDS_P2;PMS_P1;PMS_P2;Temp;Humidity;BMP_temperature;BMP_pressure;BME280_temperature;BME280_humidity;BME280_pressure;Samples;Min_cycle;Max_cycle;Signal;HPM_P1;HPM_P2
2021/01/13 00:01:50;;;;;;;7.43;3.08;;;6.10;86.50;;;;;;5032423;28;20033;-51
2021/01/13 00:04:16;;;;;;;9.45;3.10;;;6.10;86.50;;;;;;5033451;28;20045;-51
2021/01/13 00:06:41;;;;;;;7.07;3.42;;;6.10;86.50;;;;;;5017665;28;20072;-51
2021/01/13 00:09:07;;;;;;;7.28;2.90;;;6.10;86.60;;;;;;5014228;28;20037;-51
2021/01/13 00:11:33;;;;;;;5.28;2.40;;;6.10;86.50;;;;;;5013949;28;20033;-51
2021/01/13 00:13:58;;;;;;;5.00;2.80;;;6.10;86.60;;;;;;5015086;28;20065;-52
2021/01/13 00:16:24;;;;;;;5.72;2.78;;;6.10;86.60;;;;;;5013983;28;20029;-52
2021/01/13 00:18:49;;;;;;;4.78;2.40;;;6.10;86.60;;;;;;5018792;28;20324;-52
2021/01/13 00:21:16;;;;;;;6.28;2.70;;;6.00;86.60;;;;;;5033470;28;20422;-52
2021/01/13 00:23:44;;;;;;;5.20;2.55;;;6.10;86.70;;;;;;5032055;28;20112;-51
2021/01/13 00:26:16;;;;;;;3.92;2.53;;;6.00;86.70;;;;;;5033780;28;20021;-51
2021/01/13 00:28:42;;;;;;;13.20;3.88;;;6.00;86.70;;;;;;5033736;28;20031;-51
2021/01/13 00:31:07;;;;;;;7.18;4.00;;;6.00;86.70;;;;;;5033277;28;20112;-52
2021/01/13 00:33:33;;;;;;;7.38;4.15;;;6.00;86.70;;;;;;5031569;28;20095;-51
2021/01/13 00:35:59;;;;;;;7.00;3.63;;;6.00;86.80;;;;;;5033451;28;20079;-51
2021/01/13 00:38:24;;;;;;;6.30;3.35;;;6.00;86.80;;;;;;5033078;28;20037;-52
2021/01/13 00:40:50;;;;;;;4.93;3.00;;;6.00;86.80;;;;;;5033386;28;20439;-51
2021/01/13 00:43:15;;;;;;;5.80;3.20;;;5.90;86.80;;;;;;5033144;28;20061;-51
2021/01/13 00:45:41;;;;;;;6.47;2.78;;;6.00;86.90;;;;;;5031204;28;20033;-52
2021/01/13 00:48:07;;;;;;;4.07;2.83;;;5.90;86.80;;;;;;5032803;28;20451;-51
2021/01/13 00:50:32;;;;;;;5.22;2.40;;;5.90;86.80;;;;;;5032534;28;20041;-51
2021/01/13 00:52:58;;;;;;;3.67;2.30;;;5.90;86.90;;;;;;5033504;28;20101;-52
2021/01/13 00:55:24;;;;;;;4.22;2.42;;;5.90;86.90;;;;;;5031513;28;20455;-52
2021/01/13 00:57:53;;;;;;;8.27;3.45;;;5.90;87.00;;;;;;5033173;28;20026;-52
2021/01/13 01:00:19;;;;;;;9.23;3.17;;;5.90;86.90;;;;;;5032911;28;20021;-51
2021/01/13 01:02:45;;;;;;;8.38;3.17;;;5.90;86.90;;;;;;5032971;28;20440;-51
2021/01/13 01:05:10;;;;;;;4.88;3.05;;;5.90;86.90;;;;;;5030646;28;20025;-52
2021/01/13 01:07:41;;;;;;;7.45;2.72;;;5.90;86.90;;;;;;5013480;28;20030;-51
2021/01/13 01:10:08;;;;;;;8.57;3.47;;;5.90;87.00;;;;;;5013101;28;20096;-52
2021/01/13 01:12:34;;;;;;;8.30;2.80;;;5.90;87.10;;;;;;5014379;28;20050;-51
2021/01/13 01:14:59;;;;;;;8.55;2.90;;;5.90;87.00;;;;;;5013360;28;20030;-52
2021/01/13 01:17:25;;;;;;;8.45;3.00;;;5.90;87.00;;;;;;5014089;28;20037;-52
2021/01/13 01:19:50;;;;;;;7.13;3.22;;;5.90;87.10;;;;;;5012906;28;20018;-52
2021/01/13 01:22:16;;;;;;;3.83;2.90;;;5.90;87.10;;;;;;5013376;28;20033;-52
2021/01/13 01:24:42;;;;;;;7.82;2.83;;;5.90;87.00;;;;;;5013312;28;20026;-52
2021/01/13 01:27:07;;;;;;;5.60;2.58;;;5.90;87.10;;;;;;5014501;28;20375;-52
2021/01/13 01:29:33;;;;;;;3.95;2.60;;;5.80;87.10;;;;;;5012763;28;20109;-52
2021/01/13 01:31:58;;;;;;;5.40;2.75;;;5.80;87.10;;;;;;5013065;28;20065;-52
2021/01/13 01:34:24;;;;;;;3.83;2.50;;;5.80;87.10;;;;;;5013348;28;20026;-52
2021/01/13 01:36:55;;;;;;;4.40;2.67;;;5.80;87.10;;;;;;5013258;28;20022;-52
2021/01/13 01:39:22;;;;;;;4.45;2.70;;;5.80;87.00;;;;;;5032319;28;20033;-52
2021/01/13 01:41:47;;;;;;;6.53;2.38;;;5.80;87.00;;;;;;5032541;28;20021;-52
2021/01/13 01:44:13;;;;;;;10.10;2.72;;;5.80;87.00;;;;;;5032608;28;20056;-51
2021/01/13 01:46:44;;;;;;;5.22;2.83;;;5.80;87.00;;;;;;5032659;28;20033;-51
2021/01/13 01:49:14;;;;;;;3.97;2.28;;;5.80;87.00;;;;;;5031195;28;20037;-52
2021/01/13 01:51:55;;;;;;;5.43;2.55;;;5.90;87.10;;;;;;5032724;28;20037;-51
2021/01/13 01:54:24;;;;;;;6.55;3.17;;;5.80;87.00;;;;;;5032437;28;20028;-52
2021/01/13 01:56:54;;;;;;;3.17;2.55;;;5.90;87.00;;;;;;5034216;28;20033;-52
2021/01/13 01:59:31;;;;;;;6.32;2.97;;;5.80;87.00;;;;;;5021996;28;20033;-52
2021/01/13 02:02:01;;;;;;;6.43;3.13;;;5.90;87.00;;;;;;5045101;28;20018;-51
2021/01/13 02:04:34;;;;;;;9.63;2.40;;;5.90;87.00;;;;;;5056254;28;20454;-51
2021/01/13 02:07:08;;;;;;;4.45;3.00;;;5.90;87.00;;;;;;5019357;28;20041;-51
2021/01/13 02:09:34;;;;;;;5.05;2.80;;;5.90;86.90;;;;;;5034018;28;20355;-52
2021/01/13 02:12:08;;;;;;;3.53;2.65;;;5.90;86.90;;;;;;5036006;28;20021;-52
2021/01/13 02:14:34;;;;;;;10.88;2.97;;;5.90;86.90;;;;;;5036215;28;20057;-51
2021/01/13 02:17:04;;;;;;;5.97;2.72;;;5.90;87.00;;;;;;5035955;28;20084;-52
2021/01/13 02:20:12;;;;;;;4.50;2.77;;;5.90;86.90;;;;;;5035715;28;20428;-52
2021/01/13 02:22:55;;;;;;;10.57;3.05;;;5.90;86.90;;;;;;5036059;28;20099;-51
2021/01/13 02:25:59;;;;;;;4.40;2.95;;;5.90;87.70;;;;;;5016654;28;20033;-51
2021/01/13 02:28:26;;;;;;;4.60;2.40;;;5.90;87.00;;;;;;5016063;28;20034;-52
2021/01/13 02:31:04;;;;;;;6.57;2.20;;;5.90;86.90;;;;;;5016720;28;20030;-52
2021/01/13 02:33:40;;;;;;;11.00;2.63;;;5.90;86.90;;;;;;5016053;28;20466;-51
2021/01/13 02:36:34;;;;;;;7.18;3.00;;;5.90;86.80;;;;;;5015771;28;20037;-52
2021/01/13 02:39:07;;;;;;;11.57;3.10;;;5.90;86.90;;;;;;5015634;28;20038;-51
2021/01/13 02:41:42;;;;;;;3.28;2.08;;;5.90;86.90;;;;;;5016724;28;20021;-51
2021/01/13 02:44:12;;;;;;;6.53;3.08;;;5.90;86.80;;;;;;5015756;28;20092;-52
2021/01/13 02:46:50;;;;;;;4.40;2.28;;;5.90;86.80;;;;;;5015652;28;20026;-52
2021/01/13 02:49:20;;;;;;;4.05;2.70;;;5.90;86.80;;;;;;5015870;28;20034;-52
2021/01/13 02:51:50;;;;;;;;;;;5.90;86.80;;;;;;5019585;28;20112;-52
2021/01/13 02:54:33;;;;;;;3.03;1.92;;;5.90;86.90;;;;;;5035254;28;19905;-51
2021/01/13 02:57:21;;;;;;;4.50;2.83;;;5.90;86.80;;;;;;5035089;28;20033;-51
2021/01/13 02:59:49;;;;;;;3.92;2.47;;;5.90;86.90;;;;;;5020271;28;20037;-51
2021/01/13 03:02:16;;;;;;;4.43;2.15;;;5.90;86.80;;;;;;5016463;28;20048;-51
2021/01/13 03:04:43;;;;;;;4.30;2.40;;;5.90;86.80;;;;;;5016837;28;20046;-51
2021/01/13 03:07:16;;;;;;;3.75;2.45;;;5.90;86.90;;;;;;5031100;28;20037;-51
2021/01/13 03:09:47;;;;;;;6.38;2.08;;;6.00;86.90;;;;;;5033833;28;20025;-51
2021/01/13 03:12:19;;;;;;;4.97;2.45;;;6.00;86.80;;;;;;5032759;28;20440;-51
2021/01/13 03:14:57;;;;;;;4.20;2.17;;;5.90;86.80;;;;;;5016521;28;20050;-52
2021/01/13 03:17:28;;;;;;;6.95;2.58;;;6.00;86.80;;;;;;5015261;28;20062;-52
2021/01/13 03:20:22;;;;;;;8.38;2.78;;;6.00;86.80;;;;;;5014656;28;20030;-51
2021/01/13 03:22:58;;;;;;;4.53;2.22;;;6.00;86.80;;;;;;5015001;28;20065;-51
2021/01/13 03:25:25;;;;;;;5.75;2.22;;;6.00;86.90;;;;;;5033344;28;20030;-52
2021/01/13 03:27:53;;;;;;;5.05;2.03;;;6.00;86.80;;;;;;5034771;28;20029;-52
2021/01/13 03:30:20;;;;;;;7.88;2.47;;;6.00;86.80;;;;;;5034270;28;20485;-52
2021/01/13 03:33:01;;;;;;;4.18;2.13;;;6.00;86.80;;;;;;5034571;28;20025;-52
2021/01/13 03:35:45;;;;;;;6.65;2.00;;;6.00;86.70;;;;;;5032972;28;20343;-51
2021/01/13 03:38:16;;;;;;;3.60;2.10;;;6.00;86.80;;;;;;5034014;28;20045;-51
2021/01/13 03:40:44;;;;;;;9.40;2.45;;;6.00;86.80;;;;;;5018778;28;20486;-51
2021/01/13 03:43:21;;;;;;;2.90;1.92;;;6.00;86.80;;;;;;5014443;28;20404;-52
2021/01/13 03:45:51;;;;;;;10.10;2.58;;;6.00;86.80;;;;;;5012995;28;20040;-52
2021/01/13 03:48:40;;;;;;;4.68;2.22;;;6.00;86.80;;;;;;5014576;28;20057;-52
2021/01/13 03:51:06;;;;;;;7.07;2.47;;;6.00;86.80;;;;;;5013654;28;20430;-52
2021/01/13 03:53:40;;;;;;;7.90;2.30;;;6.00;86.80;;;;;;5014664;28;20022;-52
2021/01/13 03:56:10;;;;;;;3.10;2.40;;;6.00;86.80;;;;;;5015519;28;20034;-51
2021/01/13 03:58:43;;;;;;;;;;;6.00;86.90;;;;;;5014959;28;20080;-51
2021/01/13 04:01:24;;;;;;;3.72;2.03;;;6.00;86.70;;;;;;5030009;28;20358;-51
2021/01/13 04:03:49;;;;;;;;;;;6.00;86.70;;;;;;5034772;28;20060;-51
2021/01/13 04:06:15;;;;;;;3.03;2.15;;;6.00;86.70;;;;;;5022403;28;19964;-51
2021/01/13 04:08:43;;;;;;;4.47;1.88;;;6.00;86.70;;;;;;5014324;28;20033;-51
2021/01/13 04:11:13;;;;;;;2.78;1.63;;;6.00;86.80;;;;;;5013794;28;20026;-51
2021/01/13 04:13:49;;;;;;;9.57;2.10;;;6.00;86.70;;;;;;5014207;28;20084;-52
2021/01/13 04:16:20;;;;;;;4.65;2.38;;;6.00;86.70;;;;;;5013916;28;20034;-52
2021/01/13 04:18:48;;;;;;;7.28;2.42;;;6.00;86.70;;;;;;5032682;28;20447;-52
2021/01/13 04:21:16;;;;;;;5.15;2.08;;;6.00;86.70;;;;;;5019644;28;20060;-52
2021/01/13 04:23:43;;;;;;;6.63;2.38;;;6.00;86.70;;;;;;5014087;28;20026;-52
2021/01/13 04:26:11;;;;;;;9.05;2.35;;;6.00;86.70;;;;;;5014831;28;20440;-52
2021/01/13 04:28:37;;;;;;;3.40;1.98;;;6.00;87.50;;;;;;5013688;28;20121;-52
2021/01/13 04:31:03;;;;;;;6.82;2.15;;;6.00;86.70;;;;;;5013740;28;20174;-51
2021/01/13 04:33:30;;;;;;;5.97;2.63;;;6.00;86.70;;;;;;5013971;28;20395;-52
2021/01/13 04:35:56;;;;;;;4.88;2.42;;;6.00;86.70;;;;;;5013659;28;20026;-52
2021/01/13 04:38:28;;;;;;;4.45;1.90;;;6.00;86.70;;;;;;5014765;28;20040;-51
2021/01/13 04:41:19;;;;;;;10.02;2.70;;;6.00;86.70;;;;;;5013357;28;20109;-52
2021/01/13 04:43:50;;;;;;;;;;;6.00;86.70;;;;;;5014397;28;20026;-52
2021/01/13 04:46:34;;;;;;;6.68;1.90;;;6.00;86.70;;;;;;5013647;28;19905;-52
2021/01/13 04:49:09;;;;;;;3.50;2.00;;;6.00;86.70;;;;;;5014762;28;20037;-52
2021/01/13 04:51:43;;;;;;;6.65;2.03;;;6.00;86.70;;;;;;5014795;28;20048;-52
2021/01/13 04:54:19;;;;;;;5.47;1.95;;;6.00;86.70;;;;;;5033251;28;20059;-52
2021/01/13 04:56:44;;;;;;;4.95;2.83;;;6.00;86.60;;;;;;5032927;28;20390;-52
2021/01/13 04:59:31;;;;;;;4.97;1.77;;;6.00;86.70;;;;;;5031634;28;20029;-52
2021/01/13 05:02:06;;;;;;;4.55;2.10;;;6.00;86.70;;;;;;5032866;28;20108;-52
2021/01/13 05:04:59;;;;;;;2.85;1.98;;;6.00;86.70;;;;;;5032951;28;20029;-52
2021/01/13 05:07:41;;;;;;;5.40;1.85;;;6.00;86.70;;;;;;5025469;28;20048;-52
2021/01/13 05:10:16;;;;;;;5.63;2.33;;;6.00;86.70;;;;;;5031158;28;20036;-52
2021/01/13 05:12:52;;;;;;;8.23;2.38;;;6.00;86.70;;;;;;5033251;28;20029;-52
2021/01/13 05:15:27;;;;;;;4.95;2.05;;;6.00;86.70;;;;;;5033360;28;20563;-52
2021/01/13 05:18:06;;;;;;;3.80;1.92;;;5.90;86.60;;;;;;5021755;28;20022;-52
2021/01/13 05:20:40;;;;;;;4.35;1.92;;;6.00;86.70;;;;;;5023206;28;20030;-52
2021/01/13 05:23:11;;;;;;;3.10;1.80;;;6.00;86.70;;;;;;5021821;28;20061;-52
2021/01/13 05:25:36;;;;;;;;;;;5.90;86.60;;;;;;5032337;28;20030;-52
2021/01/13 05:28:08;;;;;;;2.72;2.05;;;6.00;86.70;;;;;;5033017;28;19905;-52
2021/01/13 05:30:38;;;;;;;2.72;1.70;;;6.00;86.70;;;;;;5018153;28;20069;-52
2021/01/13 05:33:10;;;;;;;5.20;1.98;;;6.00;86.70;;;;;;5019876;28;20459;-52
2021/01/13 05:35:42;;;;;;;3.03;1.80;;;6.00;86.70;;;;;;5021538;28;20145;-52
2021/01/13 05:38:09;;;;;;;2.03;1.52;;;5.90;86.60;;;;;;5021906;28;20467;-52
2021/01/13 05:40:42;;;;;;;3.25;1.90;;;6.00;86.70;;;;;;5033494;28;20126;-52
2021/01/13 05:43:08;;;;;;;8.40;1.60;;;6.00;86.70;;;;;;5034959;28;20044;-52
2021/01/13 05:45:37;;;;;;;7.05;2.80;;;6.00;86.70;;;;;;5025563;28;20030;-52
2021/01/13 05:48:17;;;;;;;3.37;1.97;;;6.00;86.70;;;;;;5016736;28;20030;-52
2021/01/13 05:50:44;;;;;;;5.30;2.45;;;6.00;86.70;;;;;;5016979;28;20045;-52
2021/01/13 05:53:10;;;;;;;5.47;2.47;;;5.90;86.60;;;;;;5034853;28;20033;-52
2021/01/13 05:55:36;;;;;;;6.20;2.30;;;6.00;86.70;;;;;;5026382;28;20030;-52
2021/01/13 05:58:03;;;;;;;2.28;2.08;;;5.90;86.60;;;;;;5022310;28;20341;-52
2021/01/13 06:00:31;;;;;;;6.18;2.40;;;6.00;86.70;;;;;;5026385;28;20101;-52
2021/01/13 06:03:02;;;;;;;3.80;2.30;;;6.00;86.70;;;;;;5034420;28;20026;-52
2021/01/13 06:05:32;;;;;;;6.93;3.05;;;5.90;86.70;;;;;;5029889;28;20036;-52
2021/01/13 06:08:03;;;;;;;4.65;2.47;;;6.00;86.70;;;;;;5016531;28;20037;-52
2021/01/13 06:10:35;;;;;;;7.90;2.30;;;6.00;86.70;;;;;;5023079;28;20026;-52
2021/01/13 06:13:04;;;;;;;8.00;2.92;;;5.90;86.60;;;;;;5034705;28;20021;-52
2021/01/13 06:15:31;;;;;;;3.33;1.95;;;5.90;86.70;;;;;;5036362;28;20041;-52
2021/01/13 06:17:58;;;;;;;5.10;2.30;;;5.90;87.40;;;;;;5035552;28;20036;-52
2021/01/13 06:20:26;;;;;;;6.03;2.55;;;5.90;86.70;;;;;;5035860;28;20116;-52
2021/01/13 06:22:53;;;;;;;8.82;3.17;;;5.90;86.70;;;;;;5035147;28;20025;-52
2021/01/13 06:25:29;;;;;;;3.67;1.90;;;6.00;86.70;;;;;;5034056;28;20052;-52
2021/01/13 06:27:57;;;;;;;2.20;1.98;;;6.00;86.80;;;;;;5035710;28;20029;-52
2021/01/13 06:30:28;;;;;;;5.18;2.08;;;5.90;86.70;;;;;;5035310;28;20037;-52
2021/01/13 06:33:14;;;;;;;3.17;2.17;;;5.90;86.70;;;;;;5035846;28;20021;-52
2021/01/13 06:35:42;;;;;;;4.65;2.72;;;6.00;86.70;;;;;;5033845;28;20049;-51
2021/01/13 06:38:23;;;;;;;8.32;2.33;;;6.00;86.70;;;;;;5030421;28;20029;-52
2021/01/13 06:41:02;;;;;;;4.15;2.03;;;5.90;86.60;;;;;;5015767;28;20036;-52
2021/01/13 06:43:29;;;;;;;7.50;2.00;;;5.90;86.70;;;;;;5014903;28;20053;-52
2021/01/13 06:45:56;;;;;;;3.38;2.25;;;5.90;87.50;;;;;;5017277;28;20026;-52
2021/01/13 06:48:26;;;;;;;3.38;1.60;;;5.90;86.70;;;;;;5015726;28;20108;-52
2021/01/13 06:50:59;;;;;;;4.90;2.45;;;5.90;86.70;;;;;;5034053;28;20370;-51
2021/01/13 06:53:36;;;;;;;3.88;2.55;;;5.90;87.40;;;;;;5027238;28;20080;-51
2021/01/13 06:56:10;;;;;;;3.65;2.13;;;5.90;86.70;;;;;;5024733;28;20037;-52
2021/01/13 06:58:38;;;;;;;6.88;2.80;;;5.90;86.60;;;;;;5024639;28;20087;-52
2021/01/13 07:01:05;;;;;;;5.07;2.25;;;6.00;86.70;;;;;;5025522;28;20099;-52
2021/01/13 07:03:31;;;;;;;5.00;2.63;;;6.00;86.70;;;;;;5024887;28;20026;-51
2021/01/13 07:06:10;;;;;;;3.83;2.35;;;6.00;86.70;;;;;;5024322;28;20029;-52
2021/01/13 07:08:36;;;;;;;9.65;2.65;;;6.00;86.70;;;;;;5027318;28;20511;-52
2021/01/13 07:11:10;;;;;;;4.60;2.17;;;6.00;86.70;;;;;;5015019;28;20037;-52
2021/01/13 07:13:38;;;;;;;6.70;2.65;;;5.90;86.60;;;;;;5035235;28;20112;-52
2021/01/13 07:16:05;;;;;;;8.80;1.92;;;6.00;86.60;;;;;;5035236;28;20032;-52
2021/01/13 07:18:32;;;;;;;7.45;2.25;;;6.00;86.60;;;;;;5034960;28;20039;-52
2021/01/13 07:21:11;;;;;;;3.20;1.95;;;6.00;86.70;;;;;;5024069;28;20068;-52
2021/01/13 07:23:44;;;;;;;2.95;2.00;;;6.00;86.60;;;;;;5020472;28;20041;-52
2021/01/13 07:26:12;;;;;;;7.75;2.17;;;6.00;86.60;;;;;;5026741;28;20056;-52
2021/01/13 07:28:38;;;;;;;4.90;2.10;;;6.00;86.60;;;;;;5034516;28;20471;-52
2021/01/13 07:31:05;;;;;;;3.17;1.90;;;6.00;86.60;;;;;;5034251;28;20037;-52
2021/01/13 07:33:40;;;;;;;6.22;2.30;;;6.00;86.50;;;;;;5026201;28;20026;-52
2021/01/13 07:36:10;;;;;;;7.80;2.78;;;6.00;86.50;;;;;;5017456;28;20041;-52
2021/01/13 07:38:41;;;;;;;6.93;2.00;;;6.00;86.50;;;;;;5021724;28;20030;-52
2021/01/13 07:41:09;;;;;;;5.05;2.33;;;6.00;86.50;;;;;;5021839;28;20118;-52
2021/01/13 07:43:54;;;;;;;5.43;2.75;;;6.00;86.40;;;;;;5020128;28;20018;-52
2021/01/13 07:46:30;;;;;;;5.40;2.20;;;6.00;86.40;;;;;;5021576;28;20025;-52
2021/01/13 07:48:58;;;;;;;6.78;2.67;;;6.00;86.40;;;;;;5020541;28;20337;-52
2021/01/13 07:51:29;;;;;;;3.65;2.25;;;6.00;86.40;;;;;;5023355;28;20041;-52
2021/01/13 07:54:05;;;;;;;;;;;6.10;86.40;;;;;;5022021;28;20549;-52
2021/01/13 07:56:35;;;;;;;2.83;1.95;;;6.10;86.30;;;;;;5023570;28;20391;-52
2021/01/13 07:59:29;;;;;;;9.07;2.42;;;6.10;86.40;;;;;;5021231;28;20018;-52
2021/01/13 08:02:27;;;;;;;4.45;2.35;;;6.10;86.30;;;;;;5016166;28;20030;-51
2021/01/13 08:05:04;;;;;;;8.52;3.60;;;6.10;86.30;;;;;;5024397;28;20092;-52
2021/01/13 08:07:41;;;;;;;10.15;2.92;;;6.10;86.30;;;;;;5014338;28;20025;-52
2021/01/13 08:10:08;;;;;;;5.75;2.22;;;6.10;86.30;;;;;;5013802;28;20505;-52
2021/01/13 08:12:53;;;;;;;4.75;2.22;;;6.10;86.30;;;;;;5023564;28;20041;-51
2021/01/13 08:15:31;;;;;;;5.88;2.25;;;6.10;86.30;;;;;;5031848;28;20044;-52
2021/01/13 08:18:15;;;;;;;6.05;2.22;;;6.10;86.20;;;;;;5014281;28;20053;-52
2021/01/13 08:21:11;;;;;;;5.97;2.30;;;6.10;86.20;;;;;;5016216;28;20419;-52
2021/01/13 08:26:38;;;;;;;3.78;2.25;;;6.10;86.10;;;;;;4997096;28;20042;-52
2021/01/13 08:29:06;;;;;;;5.13;2.10;;;6.10;86.10;;;;;;5009992;28;20057;-52
2021/01/13 08:31:32;;;;;;;3.47;2.25;;;6.10;86.10;;;;;;5007533;28;20034;-52
2021/01/13 08:34:06;;;;;;;4.80;2.20;;;6.10;86.10;;;;;;5008082;28;20022;-52
2021/01/13 08:36:35;;;;;;;4.20;1.95;;;6.10;86.10;;;;;;5007799;28;20037;-52
2021/01/13 08:39:28;;;;;;;4.40;2.15;;;6.10;86.80;;;;;;5008999;28;20038;-52
2021/01/13 08:42:14;;;;;;;5.90;2.42;;;6.20;86.00;;;;;;5007931;28;20519;-52
2021/01/13 08:44:39;;;;;;;11.68;2.67;;;6.10;86.00;;;;;;5010297;28;20034;-52
2021/01/13 08:47:05;;;;;;;4.90;2.50;;;6.20;86.00;;;;;;5010637;28;20026;-52
2021/01/13 08:49:32;;;;;;;6.55;2.70;;;6.20;85.90;;;;;;5011220;28;20038;-52
2021/01/13 08:52:19;;;;;;;4.57;2.63;;;6.20;85.90;;;;;;5010842;28;20037;-52
2021/01/13 08:54:49;;;;;;;7.47;2.20;;;6.20;85.90;;;;;;5011021;28;20186;-52
2021/01/13 08:57:16;;;;;;;5.93;2.67;;;6.30;85.90;;;;;;5010696;28;20038;-52
2021/01/13 08:59:47;;;;;;;7.20;2.78;;;6.30;85.60;;;;;;4992825;28;20026;-52
2021/01/13 09:02:21;;;;;;;8.65;2.60;;;6.30;85.60;;;;;;5020945;28;20038;-52
2021/01/13 09:04:57;;;;;;;2.95;1.40;;;6.40;85.80;;;;;;5013865;28;20387;-52
2021/01/13 09:07:23;;;;;;;3.15;2.08;;;6.40;85.80;;;;;;5031916;28;20029;-52
2021/01/13 09:10:07;;;;;;;5.68;1.92;;;6.40;85.40;;;;;;5031126;28;20485;-52
2021/01/13 09:12:36;;;;;;;3.45;2.50;;;6.40;85.40;;;;;;5030544;28;20168;-52
2021/01/13 09:15:08;;;;;;;3.35;2.30;;;6.40;85.40;;;;;;5013415;28;20025;-52
2021/01/13 09:17:57;;;;;;;2.30;1.83;;;6.40;85.50;;;;;;5013255;28;20037;-52
2021/01/13 09:20:27;;;;;;;12.57;4.88;;;6.40;85.50;;;;;;5013460;28;20038;-52
2021/01/13 09:22:56;;;;;;;5.53;2.55;;;6.40;85.40;;;;;;5016174;28;20033;-52
2021/01/13 09:25:47;;;;;;;7.43;2.20;;;6.40;85.40;;;;;;5030959;28;20034;-52
2021/01/13 09:28:18;;;;;;;11.02;1.98;;;6.40;85.40;;;;;;5029142;28;20033;-52
2021/01/13 09:30:44;;;;;;;3.28;1.70;;;6.40;85.10;;;;;;5015934;28;20053;-52
2021/01/13 09:33:15;;;;;;;5.80;2.22;;;6.50;85.00;;;;;;5013146;28;20080;-52
2021/01/13 09:35:42;;;;;;;11.65;3.97;;;6.50;84.80;;;;;;5026801;28;20029;-52
2021/01/13 09:38:13;;;;;;;4.38;1.70;;;6.60;84.70;;;;;;5013346;28;20065;-52
2021/01/13 09:40:52;;;;;;;4.10;2.42;;;6.60;84.70;;;;;;5027870;28;20030;-52
2021/01/13 09:43:38;;;;;;;4.57;2.10;;;6.60;84.70;;;;;;5032489;28;20445;-52
2021/01/13 09:46:06;;;;;;;5.07;2.22;;;6.60;84.70;;;;;;5032672;28;20471;-52
2021/01/13 09:48:34;;;;;;;4.72;1.77;;;6.60;84.70;;;;;;5018244;28;20088;-52
2021/01/13 09:51:01;;;;;;;5.90;2.10;;;6.60;84.80;;;;;;5013535;28;20337;-52
2021/01/13 09:53:46;;;;;;;6.03;2.00;;;6.60;84.80;;;;;;5014025;28;20042;-52
2021/01/13 09:56:12;;;;;;;7.95;2.58;;;6.60;84.90;;;;;;5013083;28;20037;-52
2021/01/13 09:58:48;;;;;;;2.35;1.05;;;6.60;84.90;;;;;;5025610;28;20060;-52
2021/01/13 10:01:17;;;;;;;3.75;1.92;;;6.60;85.00;;;;;;5019414;28;20034;-52
2021/01/13 10:03:45;;;;;;;2.65;1.73;;;6.60;85.00;;;;;;5018494;28;20030;-52
2021/01/13 10:06:16;;;;;;;5.72;2.35;;;6.60;85.00;;;;;;5024631;28;20418;-52
2021/01/13 10:08:42;;;;;;;0.57;0.57;;;6.60;85.00;;;;;;5032769;28;20072;-52
2021/01/13 10:11:08;;;;;;;7.15;2.47;;;6.70;85.00;;;;;;5032047;28;20041;-52
2021/01/13 10:13:41;;;;;;;4.07;2.08;;;6.70;85.10;;;;;;5022606;28;20018;-52
2021/01/13 10:16:09;;;;;;;3.50;2.05;;;6.70;85.00;;;;;;5012796;28;20529;-52
2021/01/13 10:18:51;;;;;;;4.22;1.98;;;6.70;85.00;;;;;;5028246;28;20478;-52
2021/01/13 10:21:18;;;;;;;5.90;1.45;;;6.70;85.00;;;;;;5035655;28;20029;-52
2021/01/13 10:23:45;;;;;;;3.22;1.20;;;6.70;85.10;;;;;;5025064;28;20030;-52
2021/01/13 10:26:12;;;;;;;3.67;1.90;;;6.70;85.20;;;;;;5015996;28;20747;-52
2021/01/13 10:28:38;;;;;;;4.03;1.58;;;6.70;85.10;;;;;;5016272;28;20116;-52
2021/01/13 10:31:05;;;;;;;6.57;2.03;;;6.70;85.00;;;;;;5018916;28;20077;-52
2021/01/13 10:33:47;;;;;;;6.70;1.75;;;6.70;85.00;;;;;;5035265;28;20026;-52
2021/01/13 10:36:29;;;;;;;7.38;1.92;;;6.70;85.00;;;;;;5035277;28;20494;-52
2021/01/13 10:38:56;;;;;;;2.10;0.93;;;6.70;85.70;;;;;;5035379;28;20045;-52
2021/01/13 10:41:49;;;;;;;7.03;1.65;;;6.70;85.10;;;;;;5035415;28;20029;-52
2021/01/13 10:44:29;;;;;;;2.50;1.60;;;6.70;85.20;;;;;;5035840;28;20053;-52
2021/01/13 10:46:59;;;;;;;5.20;2.17;;;6.70;85.10;;;;;;5015896;28;20037;-52
2021/01/13 10:49:30;;;;;;;6.07;1.92;;;6.70;85.10;;;;;;5032771;28;20037;-52
2021/01/13 10:52:03;;;;;;;4.03;1.88;;;6.70;85.10;;;;;;5035284;28;20087;-52
2021/01/13 10:54:31;;;;;;;4.93;2.10;;;6.80;85.10;;;;;;5022227;28;20034;-51
2021/01/13 10:57:05;;;;;;;3.10;1.98;;;6.70;85.10;;;;;;5016904;28;20117;-52
2021/01/13 10:59:31;;;;;;;7.93;2.13;;;6.70;85.10;;;;;;5020091;28;20027;-52
2021/01/13 11:02:05;;;;;;;14.32;2.38;;;6.80;85.10;;;;;;5035100;28;20048;-52
2021/01/13 11:04:42;;;;;;;6.43;2.15;;;6.70;85.00;;;;;;5035088;28;20112;-52
2021/01/13 11:07:17;;;;;;;5.55;2.30;;;6.80;85.00;;;;;;5016324;28;20395;-52
2021/01/13 11:09:44;;;;;;;4.72;1.90;;;6.80;85.00;;;;;;5020058;28;20321;-52
2021/01/13 11:12:16;;;;;;;2.83;1.67;;;6.80;85.00;;;;;;5034655;28;20471;-52
2021/01/13 11:14:46;;;;;;;4.10;2.08;;;6.80;85.10;;;;;;5035024;28;20040;-51
2021/01/13 11:17:26;;;;;;;5.43;2.10;;;6.80;85.00;;;;;;5029316;28;20034;-52
2021/01/13 11:19:52;;;;;;;4.07;1.88;;;6.80;85.00;;;;;;5014942;28;20107;-52
2021/01/13 11:22:29;;;;;;;3.83;2.20;;;6.90;85.20;;;;;;5015159;28;20446;-52
2021/01/13 11:24:55;;;;;;;6.30;2.10;;;6.80;85.00;;;;;;5015941;28;20529;-52
2021/01/13 11:27:24;;;;;;;2.65;2.08;;;6.80;85.10;;;;;;5015892;28;20034;-52
2021/01/13 11:29:55;;;;;;;3.47;1.95;;;6.90;85.10;;;;;;5034337;28;20069;-52
2021/01/13 11:32:26;;;;;;;;;;;6.80;85.00;;;;;;5034335;28;20041;-52
2021/01/13 11:34:55;;;;;;;4.82;2.25;;;6.80;85.00;;;;;;5034995;28;19912;-52
2021/01/13 11:37:36;;;;;;;6.10;2.33;;;6.80;85.00;;;;;;5020755;28;20042;-52
2021/01/13 11:40:13;;;;;;;10.55;2.67;;;6.80;85.00;;;;;;5031085;28;20061;-52
2021/01/13 11:43:00;;;;;;;3.10;1.98;;;6.80;85.00;;;;;;5026153;28;20360;-52
2021/01/13 11:45:32;;;;;;;5.18;2.45;;;6.80;85.00;;;;;;5014833;28;20022;-52
2021/01/13 11:48:05;;;;;;;4.40;1.75;;;6.90;85.00;;;;;;5014774;28;20467;-52
2021/01/13 11:50:36;;;;;;;2.80;1.85;;;6.90;85.00;;;;;;5022095;28;20534;-52
2021/01/13 11:53:08;;;;;;;4.03;1.90;;;6.80;84.90;;;;;;5014415;28;20033;-52
2021/01/13 11:55:34;;;;;;;1.35;1.15;;;6.90;85.00;;;;;;5014995;28;20203;-52
2021/01/13 11:58:00;;;;;;;0.47;0.47;;;6.80;85.00;;;;;;5034370;28;20022;-52
2021/01/13 12:00:28;;;;;;;3.35;2.22;;;6.90;85.20;;;;;;5032094;28;20021;-52
2021/01/13 12:02:56;;;;;;;1.23;0.98;;;6.80;85.00;;;;;;5034156;28;20469;-52
2021/01/13 12:05:37;;;;;;;11.05;1.75;;;6.80;85.10;;;;;;5028781;28;20041;-52
2021/01/13 12:08:07;;;;;;;6.85;1.40;;;6.90;85.10;;;;;;5020655;28;20402;-52
2021/01/13 12:10:38;;;;;;;5.25;1.30;;;6.90;85.20;;;;;;5032090;28;20060;-52
2021/01/13 12:13:26;;;;;;;3.72;1.67;;;6.90;85.20;;;;;;5032216;28;20112;-52
2021/01/13 12:16:05;;;;;;;6.80;1.65;;;6.90;85.10;;;;;;5032031;28;20040;-52
2021/01/13 12:18:41;;;;;;;0.98;0.70;;;6.90;85.10;;;;;;5028146;28;20513;-52
2021/01/13 12:21:13;;;;;;;10.43;1.35;;;6.90;85.10;;;;;;5013861;28;20096;-52
2021/01/13 12:23:40;;;;;;;1.60;1.45;;;6.90;85.10;;;;;;5020832;28;20096;-52
2021/01/13 12:26:27;;;;;;;3.20;0.73;;;6.90;85.20;;;;;;5033519;28;20452;-52
2021/01/13 12:29:14;;;;;;;3.20;1.92;;;6.90;85.10;;;;;;5031923;28;20447;-52
2021/01/13 12:31:44;;;;;;;0.63;0.63;;;6.90;85.20;;;;;;5032789;28;20562;-52
2021/01/13 12:34:14;;;;;;;2.72;1.77;;;6.90;85.20;;;;;;5033440;28;20035;-52
2021/01/13 12:36:51;;;;;;;5.38;2.60;;;6.90;85.20;;;;;;5033521;28;20336;-52
2021/01/13 12:39:27;;;;;;;6.63;1.83;;;6.90;85.10;;;;;;5017782;28;20030;-52
2021/01/13 12:41:54;;;;;;;5.25;1.48;;;7.00;85.10;;;;;;5012794;28;20079;-52
2021/01/13 12:44:21;;;;;;;4.70;1.85;;;7.00;85.00;;;;;;5030442;28;20037;-52
2021/01/13 12:46:53;;;;;;;5.18;2.38;;;7.00;85.10;;;;;;5027679;28;20097;-51
2021/01/13 12:49:20;;;;;;;5.35;1.50;;;6.90;85.20;;;;;;5013451;28;20467;-52
2021/01/13 12:51:53;;;;;;;3.38;1.40;;;6.90;85.10;;;;;;5026844;28;20049;-52
2021/01/13 12:54:19;;;;;;;5.43;2.25;;;7.00;85.10;;;;;;5033126;28;20029;-52
2021/01/13 12:56:45;;;;;;;3.33;1.90;;;7.00;85.10;;;;;;5032942;28;20159;-52
2021/01/13 12:59:11;;;;;;;2.88;1.92;;;7.00;85.00;;;;;;5013394;28;20029;-52
2021/01/13 13:01:38;;;;;;;3.70;1.83;;;7.00;85.00;;;;;;5014265;28;20034;-51
2021/01/13 13:04:04;;;;;;;6.10;1.27;;;7.00;85.00;;;;;;5013325;28;20025;-52
2021/01/13 13:06:35;;;;;;;7.88;2.13;;;7.00;84.90;;;;;;5027779;28;20168;-52
2021/01/13 13:09:03;;;;;;;2.85;1.38;;;7.00;84.90;;;;;;5018590;28;20029;-52
2021/01/13 13:11:29;;;;;;;3.78;1.23;;;7.00;84.90;;;;;;5022928;28;20042;-52
2021/01/13 13:13:55;;;;;;;4.47;1.58;;;7.00;84.80;;;;;;5019412;28;20034;-52
2021/01/13 13:16:21;;;;;;;3.90;1.52;;;7.00;84.90;;;;;;5029393;28;20022;-52
2021/01/13 13:18:49;;;;;;;2.42;1.35;;;7.00;84.80;;;;;;5033090;28;20354;-52
2021/01/13 13:21:16;;;;;;;3.42;1.10;;;7.00;85.10;;;;;;5031258;28;20037;-52
2021/01/13 13:23:42;;;;;;;2.05;1.42;;;7.00;84.80;;;;;;5027414;28;20029;-52
2021/01/13 13:26:08;;;;;;;4.95;1.50;;;7.00;84.80;;;;;;5013251;28;20116;-52